Augusta, West Virginia
Current Conditions -  °F | °C
As of 11:21 PM on Saturday 25 Oct 2014 (Local Time) from KCBE Reporting Station
Clear Clear  
Wind Chill: 66°   Ceiling: Unl
Heat Index: 66°   Visibility: 10mi
Dew Point: 50°   Wind: 17mph
Humidity: 56%   Direction: 280°W
Pressure: 29.76"   Gusts: 33mph
Location:  39.3°N, 78.64°W
Report Text: KCBE 260321Z AUTO 28015G29KT 10SM CLR 19/10 A2976 RMK AO1
Loading
Personal Weather Stations






























Interactive Weather Map
Tropical Storm Tracking
New forecast layout! Learn more

10-Day Weather Forecast

Advertisements
Track Severe Weather on mobile